createdAt,value
2019-04-16T00:01:21.295Z,13.20
2019-04-16T00:03:58.007Z,13.10
2019-04-16T00:06:51.486Z,13.10
2019-04-16T00:09:42.072Z,13.10
2019-04-16T00:12:25.965Z,13.10
2019-04-16T00:14:58.355Z,13.00
2019-04-16T00:17:30.086Z,13.00
2019-04-16T00:20:05.911Z,13.00
2019-04-16T00:22:43.203Z,13.00
2019-04-16T00:25:14.912Z,12.90
2019-04-16T00:27:46.633Z,12.90
2019-04-16T00:30:18.350Z,12.80
2019-04-16T00:32:50.076Z,12.80
2019-04-16T00:35:21.812Z,12.80
2019-04-16T00:37:53.491Z,12.80
2019-04-16T00:40:26.693Z,12.70
2019-04-16T00:42:58.665Z,12.70
2019-04-16T00:45:30.336Z,12.70
2019-04-16T00:48:01.990Z,12.60
2019-04-16T00:50:33.760Z,12.60
2019-04-16T00:53:08.246Z,12.60
2019-04-16T00:55:42.253Z,12.60
2019-04-16T00:58:13.062Z,12.50
2019-04-16T01:00:44.740Z,12.50
2019-04-16T01:03:16.409Z,12.50
2019-04-16T01:05:48.114Z,12.40
2019-04-16T01:08:22.383Z,12.40
2019-04-16T01:10:54.074Z,12.40
2019-04-16T01:13:25.794Z,12.40
2019-04-16T01:15:57.518Z,12.40
2019-04-16T01:18:29.138Z,12.30
2019-04-16T01:21:00.805Z,12.30
2019-04-16T01:23:32.611Z,12.20
2019-04-16T01:26:04.312Z,12.20
2019-04-16T01:28:39.496Z,12.20
2019-04-16T01:31:33.434Z,12.10
2019-04-16T01:34:22.980Z,12.10
2019-04-16T01:37:28.783Z,12.10
2019-04-16T01:40:00.985Z,12.00
2019-04-16T01:42:32.791Z,12.00
2019-04-16T01:45:04.621Z,11.90
2019-04-16T01:47:37.313Z,11.90
2019-04-16T01:50:12.758Z,11.90
2019-04-16T01:52:42.833Z,11.80
2019-04-16T01:55:14.512Z,11.80
2019-04-16T01:57:46.134Z,11.80
2019-04-16T02:00:17.802Z,11.70
2019-04-16T02:02:49.449Z,11.70
2019-04-16T02:05:23.229Z,11.70
2019-04-16T02:07:56.383Z,11.60
2019-04-16T02:10:27.908Z,11.60
2019-04-16T02:13:00.689Z,11.50
2019-04-16T02:15:32.252Z,11.50
2019-04-16T02:18:05.149Z,11.50
2019-04-16T02:20:39.516Z,11.40
2019-04-16T02:23:10.402Z,11.40
2019-04-16T02:25:42.215Z,11.40
2019-04-16T02:28:13.870Z,11.40
2019-04-16T02:30:45.541Z,11.30
2019-04-16T02:33:17.303Z,11.30
2019-04-16T02:35:48.974Z,11.30
2019-04-16T02:38:20.623Z,11.20
2019-04-16T02:40:53.355Z,11.20
2019-04-16T02:43:25.246Z,11.10
2019-04-16T02:45:58.679Z,11.10
2019-04-16T02:48:30.269Z,11.10
2019-04-16T02:51:10.936Z,11.10
2019-04-16T02:53:59.861Z,11.00
2019-04-16T02:56:52.025Z,11.00
2019-04-16T02:59:26.287Z,11.00
2019-04-16T03:02:16.837Z,10.90
2019-04-16T03:04:58.196Z,10.90
2019-04-16T03:07:26.929Z,10.90
2019-04-16T03:10:01.409Z,10.80
2019-04-16T03:12:32.126Z,10.80
2019-04-16T03:15:04.321Z,10.70
2019-04-16T03:17:39.555Z,10.70
2019-04-16T03:20:13.467Z,10.70
2019-04-16T03:22:45.428Z,10.60
2019-04-16T03:25:17.046Z,10.60
2019-04-16T03:27:51.505Z,10.60
2019-04-16T03:30:22.068Z,10.60
2019-04-16T03:32:53.807Z,10.50
2019-04-16T03:35:26.734Z,10.50
2019-04-16T03:38:01.503Z,10.50
2019-04-16T03:40:32.102Z,10.50
2019-04-16T03:43:04.464Z,10.40
2019-04-16T03:45:37.612Z,10.40
2019-04-16T03:48:09.695Z,10.40
2019-04-16T03:50:41.348Z,10.30
2019-04-16T03:53:16.406Z,10.30
2019-04-16T03:55:46.485Z,10.30
2019-04-16T03:58:18.197Z,10.30
2019-04-16T04:00:49.854Z,10.20
2019-04-16T04:03:25.845Z,10.20
2019-04-16T04:05:58.185Z,10.20
2019-04-16T04:08:29.816Z,10.20
2019-04-16T04:11:01.502Z,10.20
2019-04-16T04:13:33.140Z,10.20
2019-04-16T04:16:04.929Z,10.10
2019-04-16T04:18:36.602Z,10.10
2019-04-16T04:21:08.260Z,10.00
2019-04-16T04:23:39.950Z,10.00
2019-04-16T04:26:11.585Z,10.00
2019-04-16T04:28:43.284Z,10.00
2019-04-16T04:31:16.720Z,10.00
2019-04-16T04:33:48.397Z,9.90
2019-04-16T04:36:22.954Z,9.90
2019-04-16T04:38:53.374Z,9.80
2019-04-16T04:41:25.334Z,9.80
2019-04-16T04:43:56.991Z,9.80
2019-04-16T04:46:28.623Z,9.80
2019-04-16T04:49:00.515Z,9.80
2019-04-16T04:51:32.143Z,9.80
2019-04-16T04:54:03.826Z,9.80
2019-04-16T04:56:35.511Z,9.80
2019-04-16T04:59:07.157Z,9.70
2019-04-16T05:01:41.899Z,9.70
2019-04-16T05:04:31.182Z,9.70
2019-04-16T05:07:05.023Z,9.70
2019-04-16T05:09:36.951Z,9.70
2019-04-16T05:12:08.683Z,9.70
2019-04-16T05:14:51.110Z,9.70
2019-04-16T05:17:24.755Z,9.70
2019-04-16T05:19:56.443Z,9.70
2019-04-16T05:22:28.073Z,9.70
2019-04-16T05:25:01.509Z,9.70
2019-04-16T05:27:33.083Z,9.70
2019-04-16T05:30:05.276Z,9.70
2019-04-16T05:32:36.932Z,9.80
2019-04-16T05:35:10.153Z,9.80
2019-04-16T05:37:42.009Z,9.80
2019-04-16T05:40:14.066Z,9.80
2019-04-16T05:42:45.686Z,9.90
2019-04-16T05:45:18.882Z,9.90
2019-04-16T05:47:50.528Z,10.00
2019-04-16T05:50:22.231Z,10.00
2019-04-16T05:52:53.915Z,10.10
2019-04-16T05:55:40.789Z,10.10
2019-04-16T05:58:14.904Z,10.20
2019-04-16T06:01:06.477Z,10.20
2019-04-16T06:03:38.193Z,10.30
2019-04-16T06:06:10.077Z,10.40
2019-04-16T06:08:41.842Z,10.40
2019-04-16T06:11:27.277Z,10.50
2019-04-16T06:14:08.528Z,10.50
2019-04-16T06:16:57.753Z,10.60
2019-04-16T06:20:00.497Z,10.60
2019-04-16T06:23:03.566Z,10.70
2019-04-16T06:25:59.565Z,10.70
2019-04-16T06:28:48.747Z,10.80
2019-04-16T06:31:41.565Z,10.80
2019-04-16T06:34:37.966Z,10.90
2019-04-16T06:37:21.497Z,11.00
2019-04-16T06:40:20.836Z,11.10
2019-04-16T06:43:02.800Z,11.10
2019-04-16T06:45:38.896Z,11.20
2019-04-16T06:48:13.978Z,11.30
2019-04-16T06:51:12.683Z,11.40
2019-04-16T06:54:01.669Z,11.50
2019-04-16T06:56:54.424Z,11.60
2019-04-16T06:59:47.798Z,11.70
2019-04-16T07:03:02.144Z,11.80
2019-04-16T07:05:55.172Z,11.90
2019-04-16T07:08:55.033Z,12.00
2019-04-16T07:11:26.954Z,12.10
2019-04-16T07:13:58.698Z,12.20
2019-04-16T07:16:32.248Z,12.30
2019-04-16T07:19:04.020Z,12.30
2019-04-16T07:21:35.844Z,12.50
2019-04-16T07:24:07.576Z,12.60
2019-04-16T07:26:40.013Z,12.60
2019-04-16T07:29:20.488Z,12.70
2019-04-16T07:32:29.511Z,12.80
2019-04-16T07:35:27.202Z,12.90
2019-04-16T07:38:12.994Z,13.00
2019-04-16T07:41:02.311Z,13.10
2019-04-16T07:43:52.193Z,13.10
2019-04-16T07:46:44.134Z,13.20
2019-04-16T07:49:32.264Z,13.20
2019-04-16T07:52:21.476Z,13.40
2019-04-16T07:55:14.325Z,13.50
2019-04-16T07:57:46.108Z,13.60
2019-04-16T08:00:19.183Z,13.70
2019-04-16T08:02:53.796Z,13.70
2019-04-16T08:05:27.642Z,13.90
2019-04-16T08:07:57.945Z,13.90
2019-04-16T08:10:29.775Z,14.10
2019-04-16T08:13:14.087Z,14.10
2019-04-16T08:15:45.363Z,14.30
2019-04-16T08:18:18.368Z,14.40
2019-04-16T08:21:01.052Z,14.40
2019-04-16T08:23:28.688Z,14.50
2019-04-16T08:26:04.150Z,14.60
2019-04-16T08:28:37.859Z,14.70
2019-04-16T08:31:14.453Z,14.80
2019-04-16T08:33:46.271Z,14.80
2019-04-16T08:36:17.957Z,15.00
2019-04-16T08:38:49.772Z,15.10
2019-04-16T08:41:21.799Z,15.30
2019-04-16T08:43:53.459Z,15.40
2019-04-16T08:46:28.320Z,15.50
2019-04-16T08:49:00.487Z,15.60
2019-04-16T08:51:37.050Z,15.70
2019-04-16T08:54:05.778Z,15.80
2019-04-16T08:56:38.988Z,16.00
2019-04-16T08:59:11.335Z,16.10
2019-04-16T09:01:43.351Z,16.20
2019-04-16T09:04:15.079Z,16.40
2019-04-16T09:06:47.324Z,16.50
2019-04-16T09:09:32.833Z,16.60
2019-04-16T09:12:08.858Z,16.70
2019-04-16T09:14:44.783Z,16.90
2019-04-16T09:17:19.793Z,17.10
2019-04-16T09:20:01.406Z,17.30
2019-04-16T09:22:47.882Z,17.50
2019-04-16T09:25:26.664Z,17.70
2019-04-16T09:28:24.420Z,17.80
2019-04-16T09:31:03.181Z,18.00
2019-04-16T09:33:50.031Z,18.20
2019-04-16T09:36:43.806Z,18.50
2019-04-16T09:39:22.108Z,18.60
2019-04-16T09:41:54.526Z,18.80
2019-04-16T09:44:29.744Z,19.00
2019-04-16T09:47:00.519Z,19.10
2019-04-16T09:49:34.398Z,19.30
2019-04-16T09:52:05.878Z,19.50
2019-04-16T09:54:37.593Z,19.80
2019-04-16T09:57:09.378Z,20.10
2019-04-16T09:59:47.819Z,20.30
2019-04-16T10:02:26.011Z,20.60
2019-04-16T10:04:57.818Z,20.90
2019-04-16T10:07:29.668Z,21.30
2019-04-16T10:10:01.538Z,21.70
2019-04-16T10:12:33.503Z,22.10
2019-04-16T10:15:07.906Z,22.50
2019-04-16T10:17:39.613Z,22.90
2019-04-16T10:20:12.915Z,23.30
2019-04-16T10:22:44.661Z,23.70
2019-04-16T10:25:16.644Z,24.10
2019-04-16T10:27:51.712Z,24.50
2019-04-16T10:30:30.590Z,24.80
2019-04-16T10:33:02.993Z,25.20
2019-04-16T10:35:34.822Z,25.60
2019-04-16T10:38:18.192Z,26.00
2019-04-16T10:40:55.271Z,26.40
2019-04-16T10:44:01.238Z,26.80
2019-04-16T10:47:04.111Z,27.20
2019-04-16T10:49:51.571Z,27.50
2019-04-16T10:52:56.259Z,27.80
2019-04-16T10:55:48.071Z,28.10
2019-04-16T10:58:42.235Z,28.50
2019-04-16T11:01:35.109Z,28.80
2019-04-16T11:04:43.055Z,29.10
2019-04-16T11:07:17.512Z,29.40
2019-04-16T11:09:49.799Z,29.80
2019-04-16T11:12:23.776Z,30.00
2019-04-16T11:14:56.254Z,30.30
2019-04-16T11:17:28.977Z,30.50
2019-04-16T11:20:01.278Z,30.70
2019-04-16T11:22:33.689Z,31.00
2019-04-16T11:25:06.511Z,31.30
2019-04-16T11:27:38.822Z,31.60
2019-04-16T11:30:20.668Z,31.90
2019-04-16T11:32:53.484Z,32.20
2019-04-16T11:35:25.931Z,32.40
2019-04-16T11:37:58.388Z,32.60
2019-04-16T11:40:30.767Z,32.80
2019-04-16T11:43:03.304Z,32.90
2019-04-16T11:45:35.657Z,33.00
2019-04-16T11:48:08.151Z,33.20
2019-04-16T11:50:42.276Z,33.40
2019-04-16T11:53:14.710Z,33.60
2019-04-16T11:55:47.192Z,33.80
2019-04-16T11:58:34.176Z,33.90
2019-04-16T12:01:23.181Z,34.10
2019-04-16T12:04:16.264Z,34.30
2019-04-16T12:07:06.605Z,34.50
2019-04-16T12:09:53.986Z,34.60
2019-04-16T12:12:48.127Z,34.70
2019-04-16T12:15:44.923Z,34.80
2019-04-16T12:18:33.759Z,34.90
2019-04-16T12:21:34.537Z,35.00
2019-04-16T12:24:28.584Z,35.10
2019-04-16T12:27:18.694Z,35.10
2019-04-16T12:30:18.639Z,35.10
2019-04-16T12:33:08.734Z,35.00
2019-04-16T12:35:45.749Z,35.00
2019-04-16T12:38:34.838Z,35.00
2019-04-16T12:41:26.095Z,35.00
2019-04-16T12:44:17.375Z,35.00
2019-04-16T12:47:07.865Z,35.10
2019-04-16T12:49:48.696Z,35.20
2019-04-16T12:52:58.182Z,35.30
2019-04-16T12:55:48.942Z,35.40
2019-04-16T12:58:41.594Z,35.60
2019-04-16T13:01:21.875Z,35.70
2019-04-16T13:04:01.570Z,35.90
2019-04-16T13:06:43.628Z,35.80
2019-04-16T13:09:45.683Z,35.80
2019-04-16T13:12:36.944Z,35.80
2019-04-16T13:15:22.299Z,35.50
2019-04-16T13:18:13.811Z,35.40
2019-04-16T13:21:05.475Z,35.20
2019-04-16T13:24:02.760Z,35.00
2019-04-16T13:26:47.607Z,34.70
2019-04-16T13:29:29.050Z,34.50
2019-04-16T13:31:56.948Z,34.30
2019-04-16T13:34:29.315Z,34.10
2019-04-16T13:40:17.549Z,33.70
2019-04-16T13:42:49.860Z,33.50
2019-04-16T13:45:27.673Z,33.30
2019-04-16T13:48:14.527Z,33.20
2019-04-16T13:51:01.781Z,33.10
2019-04-16T13:53:42.155Z,32.80
2019-04-16T13:56:42.394Z,32.40
2019-04-16T13:59:39.457Z,32.00
2019-04-16T14:02:24.831Z,31.60
2019-04-16T14:05:03.057Z,31.10
2019-04-16T14:07:31.501Z,30.60
2019-04-16T14:10:03.940Z,30.20
2019-04-16T14:12:42.393Z,29.90
2019-04-16T14:15:11.555Z,29.60
2019-04-16T14:17:52.531Z,29.40
2019-04-16T14:20:18.751Z,29.20
2019-04-16T14:22:53.351Z,28.90
2019-04-16T14:25:24.169Z,28.70
2019-04-16T14:28:01.934Z,28.50
2019-04-16T14:30:33.008Z,28.30
2019-04-16T14:33:07.474Z,28.00
2019-04-16T14:35:41.424Z,27.80
2019-04-16T14:38:17.314Z,27.60
2019-04-16T14:40:49.100Z,27.50
2019-04-16T14:43:29.434Z,27.40
2019-04-16T14:46:01.705Z,27.30
2019-04-16T14:48:33.704Z,27.30
2019-04-16T14:51:06.451Z,27.30
2019-04-16T14:53:51.232Z,27.30
2019-04-16T14:56:41.836Z,27.20
2019-04-16T14:59:35.150Z,27.10
2019-04-16T15:02:22.525Z,27.10
2019-04-16T15:05:32.550Z,26.90
2019-04-16T15:08:32.634Z,26.80
2019-04-16T15:11:22.114Z,26.70
2019-04-16T15:14:18.678Z,26.50
2019-04-16T15:16:58.739Z,26.40
2019-04-16T15:19:34.142Z,26.30
2019-04-16T15:22:37.093Z,26.10
2019-04-16T15:25:46.650Z,26.00
2019-04-16T15:28:21.676Z,25.80
2019-04-16T15:31:26.356Z,25.70
2019-04-16T15:34:11.134Z,25.50
2019-04-16T15:36:49.890Z,25.40
2019-04-16T15:39:27.439Z,25.30
2019-04-16T15:42:18.084Z,25.20
2019-04-16T15:45:08.258Z,25.10
2019-04-16T15:48:05.416Z,24.90
2019-04-16T15:50:45.159Z,24.80
2019-04-16T15:53:29.948Z,24.80
2019-04-16T15:56:06.920Z,24.70
2019-04-16T15:58:58.080Z,24.70
2019-04-16T16:02:01.824Z,24.60
2019-04-16T16:04:58.326Z,24.60
2019-04-16T16:07:34.230Z,24.60
2019-04-16T16:10:20.885Z,24.60
2019-04-16T16:12:53.607Z,24.60
2019-04-16T16:15:26.150Z,24.50
2019-04-16T16:17:57.962Z,24.50
2019-04-16T16:20:31.227Z,24.50
2019-04-16T16:23:04.111Z,24.50
2019-04-16T16:25:41.171Z,24.50
2019-04-16T16:28:09.321Z,24.40
2019-04-16T16:30:41.079Z,24.40
2019-04-16T16:33:12.916Z,24.40
2019-04-16T16:35:57.047Z,24.30
2019-04-16T16:38:20.783Z,24.20
2019-04-16T16:40:52.090Z,24.20
2019-04-16T16:43:23.950Z,24.10
2019-04-16T16:46:07.567Z,24.10
2019-04-16T16:48:39.396Z,24.00
2019-04-16T16:51:14.761Z,24.00
2019-04-16T16:53:54.801Z,24.00
2019-04-16T16:56:35.823Z,23.90
2019-04-16T16:59:25.162Z,23.80
2019-04-16T17:02:21.571Z,23.80
2019-04-16T17:04:54.344Z,23.70
2019-04-16T17:07:26.135Z,23.60
2019-04-16T17:09:58.077Z,23.60
2019-04-16T17:12:29.825Z,23.50
2019-04-16T17:15:01.676Z,23.50
2019-04-16T17:17:33.427Z,23.40
2019-04-16T17:20:05.833Z,23.40
2019-04-16T17:22:40.565Z,23.40
2019-04-16T17:25:12.270Z,23.30
2019-04-16T17:27:51.739Z,23.30
2019-04-16T17:30:19.163Z,23.20
2019-04-16T17:32:51.040Z,23.10
2019-04-16T17:35:22.935Z,23.00
2019-04-16T17:38:01.853Z,22.90
2019-04-16T17:40:51.151Z,22.80
2019-04-16T17:43:42.783Z,22.70
2019-04-16T17:46:32.108Z,22.50
2019-04-16T17:49:24.105Z,22.30
2019-04-16T17:52:06.379Z,22.20
2019-04-16T17:54:48.559Z,22.00
2019-04-16T17:57:38.011Z,21.90
2019-04-16T18:00:42.003Z,21.70
2019-04-16T18:03:37.586Z,21.60
2019-04-16T18:06:27.533Z,21.40
2019-04-16T18:09:14.957Z,21.30
2019-04-16T18:12:09.178Z,21.20
2019-04-16T18:14:59.238Z,21.00
2019-04-16T18:17:47.165Z,21.00
2019-04-16T18:20:30.186Z,20.90
2019-04-16T18:23:20.945Z,20.80
2019-04-16T18:26:12.609Z,20.70
2019-04-16T18:29:01.847Z,20.60
2019-04-16T18:31:44.896Z,20.50
2019-04-16T18:34:31.459Z,20.40
2019-04-16T18:37:22.905Z,20.30
2019-04-16T18:40:06.815Z,20.30
2019-04-16T18:42:56.693Z,20.20
2019-04-16T18:45:47.488Z,20.10
2019-04-16T18:48:25.003Z,20.00
2019-04-16T18:50:59.930Z,19.90
2019-04-16T18:53:32.227Z,19.80
2019-04-16T18:56:04.251Z,19.70
2019-04-16T18:58:36.262Z,19.70
2019-04-16T19:01:15.275Z,19.60
2019-04-16T19:03:48.425Z,19.50
2019-04-16T19:06:20.509Z,19.50
2019-04-16T19:08:54.459Z,19.40
2019-04-16T19:11:27.849Z,19.30
2019-04-16T19:14:01.789Z,19.30
2019-04-16T19:16:33.818Z,19.20
2019-04-16T19:19:05.924Z,19.20
2019-04-16T19:21:37.731Z,19.10
2019-04-16T19:24:09.860Z,19.00
2019-04-16T19:26:41.895Z,18.90
2019-04-16T19:29:15.629Z,18.90
2019-04-16T19:31:47.943Z,18.80
2019-04-16T19:34:21.067Z,18.70
2019-04-16T19:36:55.997Z,18.60
2019-04-16T19:39:26.931Z,18.50
2019-04-16T19:41:59.184Z,18.50
2019-04-16T19:44:33.907Z,18.50
2019-04-16T19:47:07.197Z,18.40
2019-04-16T19:49:40.597Z,18.40
2019-04-16T19:52:14.217Z,18.20
2019-04-16T19:54:46.563Z,18.30
2019-04-16T19:57:18.865Z,18.30
2019-04-16T19:59:51.167Z,18.20
2019-04-16T20:02:23.173Z,18.20
2019-04-16T20:04:55.345Z,18.20
2019-04-16T20:07:32.613Z,18.20
2019-04-16T20:10:02.621Z,18.10
2019-04-16T20:12:34.612Z,18.10
2019-04-16T20:15:09.425Z,18.10
2019-04-16T20:17:40.758Z,18.10
2019-04-16T20:20:14.549Z,18.00
2019-04-16T20:22:46.812Z,18.00
2019-04-16T20:25:18.751Z,18.00
2019-04-16T20:27:50.732Z,17.90
2019-04-16T20:30:24.424Z,17.90
2019-04-16T20:32:58.319Z,17.90
2019-04-16T20:35:30.299Z,17.80
2019-04-16T20:38:02.212Z,17.80
2019-04-16T20:40:34.823Z,17.80
2019-04-16T20:43:06.762Z,17.80
2019-04-16T20:45:40.539Z,17.70
2019-04-16T20:48:14.142Z,17.70
2019-04-16T20:50:46.024Z,17.60
2019-04-16T20:53:19.025Z,17.60
2019-04-16T20:55:50.911Z,17.60
2019-04-16T20:58:22.991Z,17.60
2019-04-16T21:00:57.307Z,17.50
2019-04-16T21:03:31.183Z,17.50
2019-04-16T21:06:07.497Z,17.40
2019-04-16T21:08:37.403Z,17.40
2019-04-16T21:11:09.795Z,17.40
2019-04-16T21:13:41.687Z,17.40
2019-04-16T21:16:13.655Z,17.40
2019-04-16T21:18:45.527Z,17.40
2019-04-16T21:21:22.951Z,17.30
2019-04-16T21:23:51.106Z,17.30
2019-04-16T21:26:22.938Z,17.30
2019-04-16T21:29:05.535Z,17.30
2019-04-16T21:31:42.341Z,17.20
2019-04-16T21:34:29.918Z,17.20
2019-04-16T21:37:15.537Z,17.10
2019-04-16T21:39:52.347Z,17.10
2019-04-16T21:42:24.237Z,17.10
2019-04-16T21:44:56.399Z,17.00
2019-04-16T21:47:29.455Z,17.00
2019-04-16T21:50:01.325Z,17.00
2019-04-16T21:52:33.098Z,16.90
2019-04-16T21:55:05.286Z,16.90
2019-04-16T21:57:37.520Z,16.90
2019-04-16T22:00:22.078Z,16.90
2019-04-16T22:02:53.980Z,16.90
2019-04-16T22:05:25.824Z,16.80
2019-04-16T22:07:58.923Z,16.80
2019-04-16T22:10:30.666Z,16.80
2019-04-16T22:13:02.580Z,16.80
2019-04-16T22:15:34.356Z,17.10
2019-04-16T22:18:08.832Z,16.70
2019-04-16T22:20:42.445Z,16.70
2019-04-16T22:23:19.038Z,16.70
2019-04-16T22:25:47.827Z,16.70
2019-04-16T22:28:19.598Z,16.70
2019-04-16T22:30:52.321Z,16.60
2019-04-16T22:33:24.084Z,16.60
2019-04-16T22:35:55.951Z,16.60
2019-04-16T22:38:29.387Z,16.60
2019-04-16T22:41:14.068Z,16.50
2019-04-16T22:44:02.163Z,16.50
2019-04-16T22:46:48.450Z,16.40
2019-04-16T22:49:22.448Z,16.40
2019-04-16T22:51:53.736Z,16.40
2019-04-16T22:54:25.490Z,16.30
2019-04-16T22:57:03.507Z,16.30
2019-04-16T22:59:39.153Z,16.30
2019-04-16T23:02:20.963Z,16.20
2019-04-16T23:04:54.766Z,16.20
2019-04-16T23:07:26.380Z,16.20
2019-04-16T23:09:58.089Z,16.10
2019-04-16T23:12:31.165Z,16.10
2019-04-16T23:15:03.464Z,16.10
2019-04-16T23:17:36.414Z,16.10
2019-04-16T23:20:08.248Z,16.00
2019-04-16T23:22:39.972Z,16.00
2019-04-16T23:25:11.837Z,16.00
2019-04-16T23:27:44.684Z,15.90
2019-04-16T23:30:18.468Z,15.90
2019-04-16T23:32:49.875Z,15.90
2019-04-16T23:35:24.909Z,15.90
2019-04-16T23:37:58.094Z,15.90
2019-04-16T23:40:28.605Z,15.90
2019-04-16T23:43:18.771Z,15.80
2019-04-16T23:46:09.148Z,15.80
2019-04-16T23:48:50.668Z,15.80
2019-04-16T23:51:28.963Z,15.70
2019-04-16T23:54:07.968Z,15.70
2019-04-16T23:56:57.106Z,15.70
2019-04-16T23:59:50.625Z,15.70
